createdAt,value
2022-11-30T00:01:15.584Z,97.33
2022-11-30T00:03:42.465Z,97.14
2022-11-30T00:06:10.043Z,97.17
2022-11-30T00:08:36.765Z,96.95
2022-11-30T00:11:13.992Z,97.22
2022-11-30T00:13:40.894Z,97.09
2022-11-30T00:16:08.271Z,97.21
2022-11-30T00:18:35.457Z,97.14
2022-11-30T00:21:02.690Z,97.44
2022-11-30T00:23:36.651Z,97.19
2022-11-30T00:26:04.596Z,97.36
2022-11-30T00:28:31.614Z,97.17
2022-11-30T00:31:05.957Z,97.27
2022-11-30T00:33:33.321Z,97.47
2022-11-30T00:36:01.416Z,97.15
2022-11-30T00:38:28.304Z,97.57
2022-11-30T00:40:56.617Z,97.38
2022-11-30T00:43:23.748Z,97.58
2022-11-30T00:45:50.516Z,97.61
2022-11-30T00:48:17.268Z,97.57
2022-11-30T00:50:44.054Z,97.53
2022-11-30T00:53:10.715Z,97.46
2022-11-30T00:55:37.483Z,97.76
2022-11-30T00:58:04.350Z,97.58
2022-11-30T01:00:30.988Z,97.68
2022-11-30T01:02:59.297Z,97.56
2022-11-30T01:05:26.232Z,97.61
2022-11-30T01:07:52.908Z,97.55
2022-11-30T01:10:19.785Z,97.72
2022-11-30T01:12:46.459Z,97.59
2022-11-30T01:15:13.155Z,97.76
2022-11-30T01:17:39.869Z,97.59
2022-11-30T01:20:08.902Z,97.67
2022-11-30T01:22:35.713Z,97.62
2022-11-30T01:25:02.443Z,97.56
2022-11-30T01:27:29.212Z,97.50
2022-11-30T01:29:55.924Z,97.48
2022-11-30T01:32:22.669Z,97.27
2022-11-30T01:34:49.649Z,97.24
2022-11-30T01:37:16.423Z,97.27
2022-11-30T01:39:43.299Z,97.07
2022-11-30T01:42:17.034Z,97.07
2022-11-30T01:44:54.489Z,97.07
2022-11-30T01:47:24.880Z,97.28
2022-11-30T01:49:57.862Z,97.08
2022-11-30T01:52:33.156Z,97.03
2022-11-30T01:55:02.625Z,97.05
2022-11-30T01:57:51.116Z,96.96
2022-11-30T02:00:18.349Z,96.81
2022-11-30T02:02:57.009Z,96.92
2022-11-30T02:05:24.005Z,97.22
2022-11-30T02:07:50.901Z,96.58
2022-11-30T02:10:19.655Z,96.65
2022-11-30T02:12:55.512Z,96.56
2022-11-30T02:15:22.837Z,95.71
2022-11-30T02:18:11.813Z,94.97
2022-11-30T02:20:44.059Z,94.57
2022-11-30T02:24:12.509Z,93.91
2022-11-30T02:26:51.506Z,93.15
2022-11-30T02:29:22.551Z,92.50
2022-11-30T02:31:56.967Z,92.16
2022-11-30T02:34:25.344Z,91.85
2022-11-30T02:36:52.049Z,91.64
2022-11-30T02:39:21.191Z,91.26
2022-11-30T02:41:47.967Z,90.84
2022-11-30T02:44:14.690Z,90.48
2022-11-30T02:47:02.313Z,90.41
2022-11-30T02:49:53.629Z,90.21
2022-11-30T02:52:22.308Z,89.74
2022-11-30T02:54:49.288Z,89.54
2022-11-30T02:57:16.274Z,89.04
2022-11-30T02:59:42.871Z,89.07
2022-11-30T03:02:09.632Z,88.56
2022-11-30T03:04:36.340Z,88.17
2022-11-30T03:07:03.150Z,88.49
2022-11-30T03:09:29.772Z,88.20
2022-11-30T03:11:56.530Z,88.21
2022-11-30T03:14:23.355Z,88.14
2022-11-30T03:16:50.049Z,88.18
2022-11-30T03:19:16.763Z,88.17
2022-11-30T03:21:43.501Z,87.69
2022-11-30T03:24:10.305Z,87.63
2022-11-30T03:26:37.009Z,87.25
2022-11-30T03:29:03.812Z,86.91
2022-11-30T03:31:30.531Z,86.91
2022-11-30T03:33:57.435Z,87.18
2022-11-30T03:36:24.115Z,86.80
2022-11-30T03:38:50.900Z,86.84
2022-11-30T03:41:17.836Z,86.51
2022-11-30T03:43:45.283Z,86.85
2022-11-30T03:46:12.271Z,86.64
2022-11-30T03:48:41.351Z,86.91
2022-11-30T03:51:08.115Z,86.95
2022-11-30T03:53:34.831Z,86.88
2022-11-30T03:56:04.847Z,86.93
2022-11-30T03:58:31.696Z,86.96
2022-11-30T04:01:08.583Z,87.09
2022-11-30T04:03:35.494Z,86.50
2022-11-30T04:06:02.657Z,86.22
2022-11-30T04:08:29.461Z,86.21
2022-11-30T04:10:56.568Z,86.24
2022-11-30T04:13:23.491Z,86.22
2022-11-30T04:15:50.721Z,86.04
2022-11-30T04:18:17.749Z,86.06
2022-11-30T04:20:44.529Z,85.96
2022-11-30T04:23:11.669Z,85.82
2022-11-30T04:25:39.358Z,86.05
2022-11-30T04:28:06.270Z,85.92
2022-11-30T04:30:33.251Z,85.92
2022-11-30T04:32:59.951Z,85.87
2022-11-30T04:35:26.713Z,85.84
2022-11-30T04:37:53.429Z,85.80
2022-11-30T04:40:20.230Z,85.31
2022-11-30T04:42:46.899Z,85.43
2022-11-30T04:45:13.674Z,84.88
2022-11-30T04:47:40.380Z,85.23
2022-11-30T04:50:07.762Z,84.93
2022-11-30T04:52:34.713Z,85.14
2022-11-30T04:57:52.784Z,85.03
2022-11-30T05:00:19.901Z,85.16
2022-11-30T05:02:52.488Z,84.94
2022-11-30T05:05:20.031Z,85.38
2022-11-30T05:07:49.457Z,85.44
2022-11-30T05:10:16.504Z,85.28
2022-11-30T05:12:43.224Z,85.54
2022-11-30T05:15:10.408Z,85.43
2022-11-30T05:17:37.173Z,85.60
2022-11-30T05:20:04.069Z,85.82
2022-11-30T05:22:30.771Z,85.81
2022-11-30T05:24:57.494Z,85.98
2022-11-30T05:27:24.197Z,85.95
2022-11-30T05:29:50.915Z,86.01
2022-11-30T05:32:17.706Z,86.06
2022-11-30T05:34:50.618Z,85.94
2022-11-30T05:37:18.814Z,86.02
2022-11-30T05:39:45.694Z,86.08
2022-11-30T05:42:12.382Z,86.13
2022-11-30T05:44:39.088Z,86.29
2022-11-30T05:47:05.981Z,86.60
2022-11-30T05:49:32.777Z,86.44
2022-11-30T05:51:59.483Z,86.16
2022-11-30T05:54:26.216Z,85.79
2022-11-30T05:56:55.076Z,85.91
2022-11-30T05:59:22.716Z,86.09
2022-11-30T06:01:51.975Z,85.82
2022-11-30T06:04:18.900Z,86.12
2022-11-30T06:06:45.863Z,86.06
2022-11-30T06:09:12.669Z,86.03
2022-11-30T06:11:39.284Z,85.90
2022-11-30T06:14:06.091Z,86.31
2022-11-30T06:16:32.788Z,86.04
2022-11-30T06:18:59.651Z,86.40
2022-11-30T06:21:26.389Z,86.37
2022-11-30T06:23:53.103Z,86.56
2022-11-30T06:26:19.861Z,86.52
2022-11-30T06:28:48.502Z,86.84
2022-11-30T06:31:15.885Z,86.71
2022-11-30T06:33:42.832Z,86.51
2022-11-30T06:36:09.572Z,86.60
2022-11-30T06:38:36.400Z,86.38
2022-11-30T06:41:07.985Z,86.20
2022-11-30T06:43:38.076Z,86.10
2022-11-30T06:46:05.475Z,86.09
2022-11-30T06:48:32.591Z,86.12
2022-11-30T06:51:00.373Z,85.87
2022-11-30T06:53:27.474Z,85.74
2022-11-30T06:55:54.200Z,86.02
2022-11-30T06:58:20.975Z,86.00
2022-11-30T07:00:47.838Z,85.95
2022-11-30T07:03:14.548Z,85.96
2022-11-30T13:27:18.911Z,83.42
2022-11-30T13:30:19.403Z,82.45
2022-11-30T13:32:57.897Z,82.32
2022-11-30T13:35:28.296Z,82.49
2022-11-30T13:41:06.517Z,81.93
2022-11-30T13:43:47.962Z,81.85
2022-11-30T13:46:16.064Z,81.94
2022-11-30T13:48:43.899Z,81.82
2022-11-30T13:51:10.740Z,81.75
2022-11-30T13:53:38.959Z,81.46
2022-11-30T13:56:17.871Z,81.29
2022-11-30T13:59:23.295Z,80.81
2022-11-30T14:01:51.222Z,80.72
2022-11-30T14:04:17.956Z,80.89
2022-11-30T14:06:55.492Z,80.96
2022-11-30T14:09:37.215Z,80.75
2022-11-30T14:12:32.602Z,80.66
2022-11-30T14:15:00.099Z,80.86
2022-11-30T14:17:27.841Z,80.96
2022-11-30T14:20:15.560Z,81.02
2022-11-30T14:22:42.282Z,80.76
2022-11-30T14:25:13.246Z,80.38
2022-11-30T14:27:39.980Z,80.54
2022-11-30T14:30:07.291Z,80.41
2022-11-30T14:32:38.033Z,80.40
2022-11-30T14:35:11.758Z,80.46
2022-11-30T14:37:55.679Z,79.99
2022-11-30T14:40:23.725Z,79.87
2022-11-30T14:42:52.726Z,79.83
2022-11-30T14:45:21.392Z,79.76
2022-11-30T14:47:51.565Z,79.66
2022-11-30T14:50:23.679Z,79.91
2022-11-30T14:53:15.316Z,79.55
2022-11-30T14:55:53.044Z,79.43
2022-11-30T14:58:22.951Z,79.23
2022-11-30T15:00:49.804Z,79.46
2022-11-30T15:03:28.715Z,79.41
2022-11-30T15:06:04.908Z,79.28
2022-11-30T15:08:48.859Z,79.22
2022-11-30T15:11:16.207Z,79.12
2022-11-30T15:13:50.377Z,79.06
2022-11-30T15:16:22.041Z,79.09
2022-11-30T15:18:49.058Z,79.05
2022-11-30T15:21:26.661Z,78.98
2022-11-30T15:23:57.932Z,79.03
2022-11-30T15:26:36.842Z,79.01
2022-11-30T15:29:08.953Z,78.98
2022-11-30T15:31:37.585Z,78.94
2022-11-30T15:34:05.040Z,79.02
2022-11-30T15:36:35.888Z,78.99
2022-11-30T15:39:03.596Z,78.89
2022-11-30T15:41:30.352Z,79.13
2022-11-30T15:43:57.308Z,79.03
2022-11-30T15:46:34.553Z,78.91
2022-11-30T15:49:16.233Z,78.93
2022-11-30T15:51:47.328Z,78.79
2022-11-30T15:54:15.316Z,78.72
2022-11-30T15:56:42.045Z,78.94
2022-11-30T15:59:11.866Z,78.96
2022-11-30T16:02:16.399Z,78.72
2022-11-30T16:04:58.599Z,78.70
2022-11-30T16:07:26.712Z,78.67
2022-11-30T16:10:03.618Z,78.58
2022-11-30T16:12:30.451Z,78.44
2022-11-30T16:14:57.215Z,78.88
2022-11-30T16:17:23.938Z,78.59
2022-11-30T16:19:50.690Z,78.54
2022-11-30T16:22:17.383Z,78.56
2022-11-30T16:24:44.085Z,78.62
2022-11-30T16:27:18.199Z,78.77
2022-11-30T16:29:50.476Z,78.83
2022-11-30T16:32:19.264Z,78.71
2022-11-30T16:34:47.429Z,78.72
2022-11-30T16:37:14.745Z,78.54
2022-11-30T16:39:41.483Z,78.76
2022-11-30T16:42:11.772Z,78.78
2022-11-30T16:44:38.490Z,78.88
2022-11-30T16:47:05.215Z,78.71
2022-11-30T16:49:33.284Z,78.91
2022-11-30T16:52:00.029Z,78.79
2022-11-30T16:54:27.125Z,78.87
2022-11-30T16:56:53.818Z,79.09
2022-11-30T16:59:20.537Z,79.03
2022-11-30T17:01:48.615Z,79.17
2022-11-30T17:04:22.881Z,79.20
2022-11-30T17:06:51.079Z,79.32
2022-11-30T17:09:18.222Z,79.20
2022-11-30T17:11:45.647Z,79.10
2022-11-30T17:14:13.078Z,79.23
2022-11-30T17:16:40.442Z,79.10
2022-11-30T17:19:07.769Z,79.27
2022-11-30T17:21:37.305Z,79.01
2022-11-30T17:24:04.546Z,78.96
2022-11-30T17:26:31.252Z,79.06
2022-11-30T17:28:57.989Z,79.10
2022-11-30T17:31:24.719Z,78.97
2022-11-30T17:33:51.482Z,79.22
2022-11-30T17:36:18.971Z,79.16
2022-11-30T17:38:45.780Z,79.37
2022-11-30T17:41:18.553Z,79.59
2022-11-30T17:43:45.788Z,79.67
2022-11-30T17:46:15.673Z,79.63
2022-11-30T17:48:43.126Z,79.49
2022-11-30T17:51:09.989Z,79.74
2022-11-30T17:53:40.002Z,79.40
2022-11-30T17:56:07.897Z,79.19
2022-11-30T17:58:41.445Z,79.33
2022-11-30T18:01:16.273Z,79.27
2022-11-30T18:03:43.440Z,79.01
2022-11-30T18:06:10.164Z,79.05
2022-11-30T18:08:37.964Z,79.15
2022-11-30T18:11:09.909Z,78.96
2022-11-30T18:13:36.762Z,78.97
2022-11-30T18:16:13.658Z,79.08
2022-11-30T18:18:45.778Z,78.89
2022-11-30T18:21:15.863Z,79.15
2022-11-30T18:23:42.555Z,78.91
2022-11-30T18:26:12.130Z,79.31
2022-11-30T18:28:38.847Z,79.29
2022-11-30T18:31:06.692Z,79.20
2022-11-30T18:33:34.216Z,78.94
2022-11-30T18:36:01.195Z,79.00
2022-11-30T18:38:31.518Z,79.00
2022-11-30T18:41:01.015Z,78.86
2022-11-30T18:43:27.804Z,78.71
2022-11-30T18:45:54.614Z,78.86
2022-11-30T18:48:21.307Z,78.66
2022-11-30T18:50:48.050Z,78.72
2022-11-30T18:53:18.266Z,78.56
2022-11-30T18:55:45.420Z,78.95
2022-11-30T18:58:12.173Z,78.80
2022-11-30T19:00:39.075Z,78.89
2022-11-30T19:03:07.077Z,78.87
2022-11-30T22:51:38.158Z,76.84
2022-11-30T22:54:05.229Z,76.33
2022-11-30T22:56:33.731Z,76.54
2022-11-30T22:59:00.919Z,76.29
2022-11-30T23:01:29.559Z,76.16
2022-11-30T23:03:57.256Z,76.00
2022-11-30T23:06:24.149Z,75.69
2022-11-30T23:08:50.907Z,75.69
2022-11-30T23:11:20.206Z,75.38
2022-11-30T23:13:46.941Z,75.65
2022-11-30T23:16:14.160Z,75.39
2022-11-30T23:18:43.458Z,74.86
2022-11-30T23:21:15.040Z,74.83
2022-11-30T23:23:42.216Z,74.79
2022-11-30T23:26:12.828Z,74.65
2022-11-30T23:28:41.203Z,74.66
2022-11-30T23:31:09.510Z,74.23
2022-11-30T23:33:37.108Z,74.48
2022-11-30T23:36:04.987Z,74.32
2022-11-30T23:38:31.864Z,74.31
2022-11-30T23:41:05.347Z,74.34
2022-11-30T23:43:32.848Z,74.43
2022-11-30T23:45:59.542Z,74.50
2022-11-30T23:48:26.436Z,74.37
2022-11-30T23:50:53.682Z,74.43
2022-11-30T23:53:20.438Z,74.36
2022-11-30T23:55:47.168Z,74.56
2022-11-30T23:58:13.855Z,74.81
